Time;durP1;ratioP1;P1;durP2;ratioP2;P2;SDS_P1;SDS_P2;PMS_P1;PMS_P2;Temp;Humidity;BMP_temperature;BMP_pressure;BME280_temperature;BME280_humidity;BME280_pressure;Samples;Min_cycle;Max_cycle;Signal;HPM_P1;HPM_P2
2022/10/31 00:00:55;;;;;;;5.53;3.67;;;;;;;;;;6306841;22;20140;-91
2022/10/31 00:03:21;;;;;;;15.43;4.60;;;;;;;;;;6315406;22;20429;-92
2022/10/31 00:05:49;;;;;;;8.30;4.10;;;11.80;99.90;;;;;;6318343;22;20832;-90
2022/10/31 00:08:16;;;;;;;9.53;5.90;;;11.80;99.90;;;;;;6307093;22;20400;-92
2022/10/31 00:10:42;;;;;;;16.05;5.82;;;;;;;;;;6307208;22;20380;-92
2022/10/31 00:13:09;;;;;;;10.25;5.68;;;11.90;99.90;;;;;;6305592;22;20158;-93
2022/10/31 00:15:36;;;;;;;10.32;6.18;;;12.00;99.90;;;;;;6312651;22;20174;-91
2022/10/31 00:18:08;;;;;;;6.22;5.25;;;12.20;99.90;;;;;;6309219;22;20151;-91
2022/10/31 00:20:34;;;;;;;11.10;4.27;;;;;;;;;;6310594;22;20216;-92
2022/10/31 00:23:04;;;;;;;9.90;4.30;;;11.80;99.90;;;;;;6309022;22;20811;-91
2022/10/31 00:25:34;;;;;;;10.50;3.35;;;11.80;99.90;;;;;;6309260;22;20358;-93
2022/10/31 00:28:00;;;;;;;12.27;5.43;;;;;;;;;;6306004;22;20136;-92
2022/10/31 00:30:26;;;;;;;11.87;4.40;;;;;;;;;;6304642;22;20213;-92
2022/10/31 00:32:52;;;;;;;13.20;4.40;;;;;;;;;;6306080;22;20374;-92
2022/10/31 00:35:18;;;;;;;8.40;5.03;;;;;;;;;;6308158;22;20354;-90
2022/10/31 00:37:44;;;;;;;9.80;3.90;;;;;;;;;;6308187;22;20366;-90
2022/10/31 00:40:10;;;;;;;4.67;3.53;;;11.70;99.90;;;;;;6305773;22;21157;-91
2022/10/31 00:42:36;;;;;;;13.38;4.93;;;;;;;;;;6302843;22;20384;-91
2022/10/31 00:45:02;;;;;;;7.87;4.53;;;;;;;;;;6302049;22;20229;-91
2022/10/31 00:47:28;;;;;;;11.40;4.70;;;;;;;;;;6302196;22;20871;-90
2022/10/31 00:49:54;;;;;;;11.83;3.77;;;;;;;;;;6305341;22;20436;-92
2022/10/31 00:52:23;;;;;;;6.83;3.57;;;11.80;99.90;;;;;;6304991;22;20385;-91
2022/10/31 00:54:48;;;;;;;10.95;3.70;;;;;;;;;;6304422;22;20370;-91
2022/10/31 00:57:14;;;;;;;10.53;4.00;;;;;;;;;;6299700;22;20250;-92
2022/10/31 00:59:40;;;;;;;116.57;12.97;;;;;;;;;;6303112;22;20449;-92
2022/10/31 01:02:06;;;;;;;140.17;13.27;;;;;;;;;;6308596;22;20427;-90
2022/10/31 01:04:32;;;;;;;182.10;16.10;;;;;;;;;;6305577;22;20361;-91
2022/10/31 01:06:58;;;;;;;113.37;12.80;;;11.40;99.90;;;;;;6305103;22;20540;-92
2022/10/31 01:09:24;;;;;;;89.47;10.40;;;11.50;99.90;;;;;;6303249;22;20404;-90
2022/10/31 01:11:51;;;;;;;13.40;7.40;;;11.20;99.90;;;;;;6307111;22;20234;-91
2022/10/31 01:14:17;;;;;;;9.38;5.55;;;;;;;;;;6313467;22;20139;-91
2022/10/31 01:16:43;;;;;;;14.23;6.43;;;;;;;;;;6312137;22;20170;-91
2022/10/31 01:19:09;;;;;;;184.83;15.50;;;;;;;;;;6312743;22;20425;-91
2022/10/31 01:21:35;;;;;;;252.53;21.07;;;;;;;;;;6312871;22;20362;-92
2022/10/31 01:24:04;;;;;;;164.63;14.13;;;;;;;;;;6305858;22;20376;-90
2022/10/31 01:26:31;;;;;;;229.60;19.17;;;11.30;99.90;;;;;;6305342;22;21091;-91
2022/10/31 01:29:03;;;;;;;206.05;19.10;;;10.90;99.90;;;;;;6304677;22;20174;-90
2022/10/31 01:31:33;;;;;;;129.93;13.60;;;11.20;99.90;;;;;;6306154;22;20241;-90
2022/10/31 01:33:59;;;;;;;77.50;10.75;;;11.30;99.90;;;;;;6324977;22;20174;-93
2022/10/31 01:36:29;;;;;;;59.13;11.13;;;11.20;99.90;;;;;;6311296;22;20922;-90
2022/10/31 01:38:57;;;;;;;24.60;7.47;;;11.30;99.90;;;;;;6305695;22;20183;-91
2022/10/31 01:41:29;;;;;;;35.70;9.48;;;11.20;99.90;;;;;;6305152;22;20340;-90
2022/10/31 01:44:00;;;;;;;36.05;10.30;;;11.20;99.90;;;;;;6308290;22;20159;-91
2022/10/31 01:46:52;;;;;;;27.77;9.15;;;11.20;99.90;;;;;;6305658;22;20246;-91
2022/10/31 01:49:24;;;;;;;28.23;9.60;;;11.20;99.90;;;;;;6304073;22;20179;-91
2022/10/31 01:52:00;;;;;;;24.58;9.07;;;11.20;99.90;;;;;;6302636;22;20147;-91
2022/10/31 01:54:31;;;;;;;32.15;8.43;;;11.10;99.90;;;;;;6303593;22;20586;-92
2022/10/31 01:56:58;;;;;;;36.05;8.95;;;11.00;99.90;;;;;;6304013;22;20208;-90
2022/10/31 01:59:29;;;;;;;26.27;7.90;;;11.10;99.90;;;;;;6303143;22;20271;-90
2022/10/31 02:01:56;;;;;;;15.20;7.70;;;11.10;99.90;;;;;;6299380;22;20212;-91
2022/10/31 02:04:24;;;;;;;19.10;8.38;;;11.00;99.90;;;;;;6297812;22;20147;-91
2022/10/31 02:06:58;;;;;;;16.25;7.88;;;10.90;99.90;;;;;;6302179;22;20148;-91
2022/10/31 02:09:24;;;;;;;16.27;7.82;;;;;;;;;;6300551;22;20179;-92
2022/10/31 02:11:51;;;;;;;11.23;6.68;;;10.90;99.90;;;;;;6298395;22;20870;-90
2022/10/31 02:14:18;;;;;;;25.63;9.40;;;;;;;;;;6299436;22;20161;-91
2022/10/31 02:16:44;;;;;;;10.27;6.43;;;;;;;;;;6299460;22;20159;-91
2022/10/31 02:19:16;;;;;;;20.17;7.13;;;10.80;99.90;;;;;;6302430;22;20313;-92
2022/10/31 02:21:56;;;;;;;16.33;8.18;;;10.80;99.90;;;;;;6301041;22;20370;-92
2022/10/31 02:24:54;;;;;;;16.38;7.65;;;10.70;99.90;;;;;;6299688;22;20136;-93
2022/10/31 02:27:49;;;;;;;10.95;6.38;;;10.80;99.90;;;;;;6300416;22;20147;-91
2022/10/31 02:30:32;;;;;;;9.48;5.40;;;10.70;99.90;;;;;;6293666;22;20160;-90
2022/10/31 02:33:27;;;;;;;11.77;5.50;;;10.80;99.90;;;;;;6299726;22;20163;-91
2022/10/31 02:36:11;;;;;;;17.45;5.88;;;11.00;99.90;;;;;;6302742;22;20505;-91
2022/10/31 02:38:37;;;;;;;9.88;4.35;;;;;;;;;;6301277;22;20183;-91
2022/10/31 02:41:12;;;;;;;21.27;8.97;;;10.70;99.90;;;;;;6300678;22;20153;-91
2022/10/31 02:44:15;;;;;;;17.60;9.00;;;10.80;99.90;;;;;;6301101;22;20839;-91
2022/10/31 02:47:02;;;;;;;13.27;6.95;;;10.80;99.90;;;;;;6303276;22;20127;-91
2022/10/31 02:49:42;;;;;;;9.05;4.57;;;10.60;99.90;;;;;;6301856;22;20185;-90
2022/10/31 02:52:18;;;;;;;15.95;6.32;;;9.00;99.90;;;;;;6304728;22;20795;-90
2022/10/31 02:54:45;;;;;;;12.45;6.50;;;10.70;99.90;;;;;;6304055;22;20165;-90
2022/10/31 02:57:11;;;;;;;12.40;6.40;;;;;;;;;;6301613;22;20427;-93
2022/10/31 02:59:47;;;;;;;8.95;5.70;;;10.70;99.90;;;;;;6303441;22;20811;-92
2022/10/31 03:02:35;;;;;;;16.42;7.05;;;10.70;99.90;;;;;;6306840;22;20502;-90
2022/10/31 03:05:06;;;;;;;13.13;7.38;;;10.70;99.90;;;;;;6324325;22;20143;-92
2022/10/31 03:08:01;;;;;;;19.20;8.48;;;10.70;99.90;;;;;;6309757;22;20167;-90
2022/10/31 03:10:47;;;;;;;11.63;7.30;;;10.60;99.90;;;;;;6307572;22;20143;-91
2022/10/31 03:13:14;;;;;;;16.92;6.07;;;10.70;99.90;;;;;;6307752;22;20155;-90
2022/10/31 03:15:51;;;;;;;16.52;6.80;;;10.60;99.90;;;;;;6304283;22;20474;-92
2022/10/31 03:18:31;;;;;;;10.00;5.30;;;10.70;99.90;;;;;;6303449;22;20171;-90
2022/10/31 03:21:25;;;;;;;15.50;6.13;;;10.70;99.90;;;;;;6304503;22;20150;-90
2022/10/31 03:23:54;;;;;;;16.65;5.50;;;10.70;99.90;;;;;;6303854;22;20143;-90
2022/10/31 03:26:23;;;;;;;11.20;5.18;;;10.60;99.90;;;;;;6302645;22;20142;-92
2022/10/31 03:29:02;;;;;;;16.35;5.53;;;10.50;99.90;;;;;;6302778;22;20175;-91
2022/10/31 03:31:34;;;;;;;16.02;5.93;;;10.40;99.90;;;;;;6308174;22;20134;-90
2022/10/31 03:34:02;;;;;;;14.02;7.90;;;10.30;99.90;;;;;;6303579;22;20163;-90
2022/10/31 03:36:30;;;;;;;20.35;10.13;;;10.40;99.90;;;;;;6303185;22;20151;-90
2022/10/31 03:38:58;;;;;;;35.75;9.57;;;10.50;99.90;;;;;;6302344;22;20527;-93
2022/10/31 03:41:28;;;;;;;11.45;7.45;;;10.50;99.90;;;;;;6303092;22;20636;-90
2022/10/31 03:44:01;;;;;;;17.70;9.15;;;10.50;99.90;;;;;;6305499;22;20136;-90
2022/10/31 03:46:27;;;;;;;18.08;8.63;;;;;;;;;;6306374;22;20242;-90
2022/10/31 03:48:53;;;;;;;14.38;8.13;;;;;;;;;;6305162;22;20175;-91
2022/10/31 03:51:45;;;;;;;11.53;7.03;;;10.30;99.90;;;;;;6306712;22;20616;-92
2022/10/31 03:54:27;;;;;;;19.73;7.60;;;10.30;99.90;;;;;;6306466;22;21091;-90
2022/10/31 03:56:57;;;;;;;8.18;5.70;;;10.20;99.90;;;;;;6312387;22;20143;-91
2022/10/31 03:59:28;;;;;;;14.95;6.30;;;10.30;99.90;;;;;;6310354;22;20642;-91
2022/10/31 04:01:58;;;;;;;11.55;6.05;;;10.20;99.90;;;;;;6307621;22;20158;-90
2022/10/31 04:04:26;;;;;;;64.95;9.98;;;10.10;99.90;;;;;;6306139;22;20204;-94
2022/10/31 04:06:53;;;;;;;15.40;6.88;;;10.10;99.90;;;;;;6307421;22;20185;-92
2022/10/31 04:09:20;;;;;;;13.35;6.70;;;;;;;;;;6306037;22;20905;-90
2022/10/31 04:11:51;;;;;;;13.63;6.53;;;10.10;99.90;;;;;;6305488;22;20492;-90
2022/10/31 04:14:17;;;;;;;13.07;5.93;;;;;;;;;;6304095;22;20139;-90
2022/10/31 04:16:44;;;;;;;15.10;8.80;;;10.10;99.90;;;;;;6305904;22;20687;-91
2022/10/31 04:19:12;;;;;;;113.70;14.65;;;9.90;99.90;;;;;;6303891;22;20473;-89
2022/10/31 04:21:37;;;;;;;182.23;22.35;;;;;;;;;;6303627;22;20832;-91
2022/10/31 04:24:04;;;;;;;59.10;11.30;;;;;;;;;;6305687;22;20150;-90
2022/10/31 04:26:29;;;;;;;133.63;16.35;;;;;;;;;;6307155;22;20370;-90
2022/10/31 04:28:55;;;;;;;22.80;9.03;;;;;;;;;;6304004;22;20179;-90
2022/10/31 04:31:21;;;;;;;15.87;9.13;;;;;;;;;;6304448;22;20460;-91
2022/10/31 04:33:47;;;;;;;17.60;7.83;;;;;;;;;;6314704;22;20381;-92
2022/10/31 04:36:13;;;;;;;13.90;8.03;;;;;;;;;;6322103;22;20418;-89
2022/10/31 04:38:39;;;;;;;23.17;7.68;;;;;;;;;;6305327;22;20429;-90
2022/10/31 04:41:05;;;;;;;15.97;7.90;;;;;;;;;;6307336;22;20154;-92
2022/10/31 04:43:31;;;;;;;12.47;7.60;;;;;;;;;;6315374;22;20998;-90
2022/10/31 04:45:57;;;;;;;14.20;7.43;;;;;;;;;;6302504;22;20374;-90
2022/10/31 04:48:23;;;;;;;52.30;11.60;;;;;;;;;;6302604;22;20394;-90
2022/10/31 04:50:49;;;;;;;87.87;12.63;;;;;;;;;;6305412;22;20408;-91
2022/10/31 04:53:15;;;;;;;110.90;15.23;;;;;;;;;;6301729;22;20378;-92
2022/10/31 04:55:41;;;;;;;63.83;10.53;;;;;;;;;;6298744;22;20424;-90
2022/10/31 04:58:07;;;;;;;144.23;15.03;;;;;;;;;;6303429;22;20370;-90
2022/10/31 05:00:33;;;;;;;356.27;27.60;;;;;;;;;;6305349;22;20959;-89
2022/10/31 05:02:59;;;;;;;29.30;7.67;;;;;;;;;;6302890;22;20362;-91
2022/10/31 05:05:27;;;;;;;42.17;8.83;;;9.30;99.90;;;;;;6304310;22;20427;-90
2022/10/31 05:08:02;;;;;;;37.05;8.38;;;9.40;99.90;;;;;;6302109;22;20373;-91
2022/10/31 05:10:30;;;;;;;44.03;10.18;;;9.30;99.90;;;;;;6303276;22;20656;-91
2022/10/31 05:12:58;;;;;;;16.50;7.32;;;9.30;99.90;;;;;;6301488;22;20382;-91
2022/10/31 05:15:25;;;;;;;9.27;6.75;;;9.40;99.90;;;;;;6302200;22;20256;-90
2022/10/31 05:17:51;;;;;;;11.10;7.00;;;;;;;;;;6301544;22;20316;-92
2022/10/31 05:20:19;;;;;;;16.15;8.05;;;9.30;99.90;;;;;;6300682;22;20190;-90
2022/10/31 05:22:49;;;;;;;8.82;7.03;;;9.30;99.90;;;;;;6300703;22;20147;-90
2022/10/31 05:25:16;;;;;;;10.30;7.78;;;9.30;99.90;;;;;;6299368;22;20181;-89
2022/10/31 05:27:44;;;;;;;15.52;7.50;;;9.70;99.90;;;;;;6300186;22;20186;-91
2022/10/31 05:30:12;;;;;;;13.07;7.03;;;9.50;99.90;;;;;;6301747;22;20175;-91
2022/10/31 05:32:46;;;;;;;13.98;6.78;;;9.50;99.90;;;;;;6302458;22;20230;-91
2022/10/31 05:35:16;;;;;;;18.40;8.32;;;9.40;99.90;;;;;;6303711;22;20155;-92
2022/10/31 05:37:48;;;;;;;23.25;8.57;;;9.40;99.90;;;;;;6302806;22;20192;-91
2022/10/31 05:40:15;;;;;;;22.20;8.80;;;9.60;99.90;;;;;;6309037;22;20946;-89
2022/10/31 05:42:42;;;;;;;27.23;8.50;;;9.40;99.90;;;;;;6305050;22;20301;-93
2022/10/31 05:45:14;;;;;;;26.35;9.30;;;9.30;99.90;;;;;;6313747;22;20151;-90
2022/10/31 05:47:40;;;;;;;20.27;8.45;;;;;;;;;;6308777;22;20146;-93
2022/10/31 05:50:07;;;;;;;20.15;8.30;;;9.30;99.90;;;;;;6306211;22;20175;-88
2022/10/31 05:52:33;;;;;;;26.90;8.98;;;;;;;;;;6304068;22;20677;-88
2022/10/31 05:54:59;;;;;;;24.30;8.10;;;;;;;;;;6304552;22;20158;-89
2022/10/31 05:57:25;;;;;;;15.65;9.18;;;;;;;;;;6305969;22;20384;-90
2022/10/31 05:59:52;;;;;;;11.90;7.68;;;;;;;;;;6306343;22;20254;-90
2022/10/31 06:02:19;;;;;;;20.08;9.05;;;9.30;99.90;;;;;;6309411;22;20245;-89
2022/10/31 06:04:45;;;;;;;23.42;10.38;;;;;;;;;;6321068;22;20570;-93
2022/10/31 06:07:10;;;;;;;28.20;8.97;;;;;;;;;;6326602;22;20211;-90
2022/10/31 06:09:36;;;;;;;93.80;12.73;;;;;;;;;;6321554;22;20469;-91
2022/10/31 06:12:02;;;;;;;147.63;15.35;;;9.30;99.90;;;;;;6311419;22;20373;-90
2022/10/31 06:14:28;;;;;;;245.63;19.90;;;;;;;;;;6335210;22;20155;-89
2022/10/31 06:16:54;;;;;;;257.60;20.00;;;;;;;;;;6309846;22;20184;-90
2022/10/31 06:19:20;;;;;;;233.65;18.90;;;;;;;;;;6309491;22;20464;-90
2022/10/31 06:21:46;;;;;;;135.73;13.07;;;;;;;;;;6306746;22;20151;-90
2022/10/31 06:24:12;;;;;;;197.60;16.93;;;;;;;;;;6306895;22;20837;-91
2022/10/31 06:26:41;;;;;;;134.90;15.53;;;9.30;99.90;;;;;;6309653;22;20433;-90
2022/10/31 06:29:07;;;;;;;86.20;11.45;;;;;;;;;;6309529;22;20480;-90
2022/10/31 06:31:33;;;;;;;88.87;12.00;;;;;;;;;;6307082;22;20151;-89
2022/10/31 06:34:02;;;;;;;125.20;12.00;;;9.60;99.90;;;;;;6302685;22;20394;-90
2022/10/31 06:36:28;;;;;;;130.93;14.00;;;;;;;;;;6321267;22;20519;-87
2022/10/31 06:38:53;;;;;;;111.10;13.97;;;;;;;;;;6295430;22;20196;-87
2022/10/31 06:41:19;;;;;;;58.30;10.80;;;;;;;;;;6296248;22;21180;-88
2022/10/31 06:43:48;;;;;;;125.03;16.00;;;9.70;99.90;;;;;;6294922;22;20361;-88
2022/10/31 06:46:14;;;;;;;141.18;16.50;;;;;;;;;;6325075;22;20414;-87
2022/10/31 06:48:43;;;;;;;92.50;13.20;;;10.00;99.90;;;;;;6293288;22;20170;-86
2022/10/31 06:51:09;;;;;;;177.15;15.95;;;;;;;;;;6303024;22;20357;-87
2022/10/31 06:53:35;;;;;;;125.13;13.75;;;;;;;;;;6300155;22;20159;-86
2022/10/31 06:56:01;;;;;;;215.90;15.07;;;;;;;;;;6300711;22;20308;-87
2022/10/31 06:58:27;;;;;;;74.47;10.50;;;;;;;;;;6304405;22;20175;-87
2022/10/31 07:00:53;;;;;;;113.20;12.07;;;;;;;;;;6300077;22;20388;-87
2022/10/31 07:03:20;;;;;;;87.07;10.70;;;;;;;;;;6301121;22;20394;-86
2022/10/31 07:05:46;;;;;;;158.27;13.95;;;;;;;;;;6297782;22;20365;-85
2022/10/31 07:08:13;;;;;;;104.07;11.55;;;10.10;99.90;;;;;;6300420;22;20192;-86
2022/10/31 07:10:40;;;;;;;134.75;13.95;;;10.20;99.90;;;;;;6297580;22;20143;-87
2022/10/31 07:13:11;;;;;;;79.45;11.88;;;10.50;99.90;;;;;;6301598;22;20211;-85
2022/10/31 07:15:38;;;;;;;16.00;9.23;;;10.80;99.90;;;;;;6291483;22;20151;-85
2022/10/31 07:18:06;;;;;;;20.13;9.18;;;10.90;99.90;;;;;;6296312;22;20185;-89
2022/10/31 07:20:33;;;;;;;55.67;10.70;;;;;;;;;;6306343;22;20189;-89
2022/10/31 07:23:00;;;;;;;19.55;8.98;;;;;;;;;;6308093;22;20139;-90
2022/10/31 07:25:26;;;;;;;23.55;9.65;;;;;;;;;;6312092;22;20226;-89
2022/10/31 07:27:52;;;;;;;88.70;11.43;;;;;;;;;;6308536;22;20147;-89
2022/10/31 07:30:25;;;;;;;115.10;14.47;;;11.20;99.90;;;;;;6307203;22;20380;-90
2022/10/31 07:32:51;;;;;;;101.60;14.85;;;;;;;;;;6305166;22;20389;-88
2022/10/31 07:35:20;;;;;;;67.32;12.65;;;11.60;99.90;;;;;;6322428;22;20154;-91
2022/10/31 07:37:46;;;;;;;200.30;18.73;;;;;;;;;;6325654;22;20155;-91
2022/10/31 07:40:12;;;;;;;27.63;11.33;;;12.80;99.90;;;;;;6316649;22;20210;-91
2022/10/31 07:42:41;;;;;;;25.15;8.60;;;12.90;99.90;;;;;;6331805;22;20381;-91
2022/10/31 07:45:09;;;;;;;15.57;8.18;;;13.30;99.90;;;;;;6309934;22;20166;-90
2022/10/31 07:47:49;;;;;;;13.13;8.73;;;13.90;99.90;;;;;;6313788;22;20162;-89
2022/10/31 07:50:20;;;;;;;12.67;7.97;;;14.60;99.90;;;;;;6311128;22;20425;-89
2022/10/31 07:53:09;;;;;;;11.63;6.97;;;15.30;99.90;;;;;;6309262;22;20385;-88
2022/10/31 07:55:36;;;;;;;13.43;8.57;;;16.50;99.90;;;;;;6306077;22;20396;-89
2022/10/31 07:58:10;;;;;;;19.23;7.47;;;17.40;99.90;;;;;;6308295;22;20385;-90
2022/10/31 08:00:37;;;;;;;9.83;7.10;;;17.80;99.90;;;;;;6303105;22;20421;-88
2022/10/31 08:03:06;;;;;;;22.37;7.80;;;18.10;99.90;;;;;;6305600;22;20462;-91
2022/10/31 08:05:32;;;;;;;26.33;8.20;;;;;;;;;;6305191;22;20538;-91
2022/10/31 08:07:59;;;;;;;34.27;7.17;;;17.70;99.90;;;;;;6304215;22;21263;-92
2022/10/31 08:10:25;;;;;;;52.97;8.90;;;17.10;99.90;;;;;;6303386;22;20485;-90
2022/10/31 08:12:58;;;;;;;55.77;8.93;;;16.50;99.90;;;;;;6302950;22;20381;-92
2022/10/31 08:15:24;;;;;;;75.23;10.10;;;;;;;;;;6303957;22;20373;-91
2022/10/31 08:17:50;;;;;;;148.30;14.10;;;;;;;;;;6300440;22;20384;-90
2022/10/31 08:20:17;;;;;;;75.20;10.00;;;;;;;;;;6304854;22;20712;-90
2022/10/31 08:22:42;;;;;;;148.43;15.17;;;;;;;;;;6306196;22;20862;-90
2022/10/31 08:25:09;;;;;;;84.37;12.10;;;;;;;;;;6306755;22;20370;-90
2022/10/31 08:27:35;;;;;;;106.33;12.50;;;;;;;;;;6307828;22;20381;-90
2022/10/31 08:30:01;;;;;;;215.27;16.73;;;;;;;;;;6307522;22;20390;-91
2022/10/31 08:32:27;;;;;;;162.50;15.40;;;;;;;;;;6303077;22;20442;-92
2022/10/31 08:34:52;;;;;;;120.60;15.13;;;;;;;;;;6304745;22;20401;-92
2022/10/31 08:37:20;;;;;;;76.17;10.80;;;;;;;;;;6301984;22;20378;-92
2022/10/31 08:39:46;;;;;;;86.23;10.80;;;14.90;99.90;;;;;;6303393;22;20421;-90
2022/10/31 08:42:13;;;;;;;143.97;13.47;;;;;;;;;;6307086;22;21047;-90
2022/10/31 08:44:39;;;;;;;52.00;7.97;;;;;;;;;;6300755;22;20394;-91
2022/10/31 08:47:05;;;;;;;35.83;7.03;;;;;;;;;;6303979;22;20369;-91
2022/10/31 08:49:31;;;;;;;141.13;15.27;;;;;;;;;;6304704;22;21114;-92
2022/10/31 08:51:57;;;;;;;27.97;9.07;;;;;;;;;;6307346;22;20362;-90
2022/10/31 08:54:23;;;;;;;49.97;9.40;;;;;;;;;;6301848;22;20466;-91
2022/10/31 08:56:53;;;;;;;25.87;7.50;;;16.40;99.90;;;;;;6303393;22;20402;-92
2022/10/31 08:59:20;;;;;;;94.47;10.57;;;;;;;;;;6305411;22;20426;-90
2022/10/31 09:01:46;;;;;;;72.40;9.30;;;;;;;;;;6307322;22;20449;-92
2022/10/31 09:04:13;;;;;;;75.03;10.43;;;;;;;;;;6311721;22;20381;-92
2022/10/31 09:06:39;;;;;;;83.30;9.90;;;;;;;;;;6321274;22;20393;-92
2022/10/31 09:09:09;;;;;;;72.27;9.00;;;15.00;99.90;;;;;;6308273;22;20389;-93
2022/10/31 09:11:36;;;;;;;89.50;9.57;;;;;;;;;;6305052;22;21005;-91
2022/10/31 09:14:06;;;;;;;45.07;9.20;;;;;;;;;;6304307;22;20378;-94
2022/10/31 09:16:33;;;;;;;37.10;8.40;;;15.20;99.90;;;;;;6302125;22;20378;-91
2022/10/31 09:18:59;;;;;;;55.00;9.57;;;;;;;;;;6300941;22;20520;-91
2022/10/31 09:21:26;;;;;;;46.83;8.50;;;;;;;;;;6303676;22;20401;-92
2022/10/31 09:23:55;;;;;;;34.73;8.33;;;;;;;;;;6302571;22;20362;-91
2022/10/31 09:26:21;;;;;;;35.57;7.83;;;15.80;99.90;;;;;;6305409;22;20366;-90
2022/10/31 09:28:50;;;;;;;31.93;7.47;;;15.90;99.90;;;;;;6302694;22;20515;-90
2022/10/31 09:31:16;;;;;;;14.10;6.20;;;;;;;;;;6302863;22;20369;-90
2022/10/31 09:33:42;;;;;;;9.50;5.80;;;;;;;;;;6299429;22;20398;-91
2022/10/31 09:36:08;;;;;;;9.43;5.60;;;;;;;;;;6302496;22;21068;-92
2022/10/31 09:38:46;;;;;;;8.27;5.53;;;16.40;99.90;;;;;;6297501;22;20543;-93
2022/10/31 09:41:51;;;;;;;9.53;7.27;;;16.30;99.90;;;;;;6297768;22;20357;-90
2022/10/31 09:44:34;;;;;;;10.60;5.80;;;16.00;99.90;;;;;;6301316;22;20366;-91
2022/10/31 09:47:22;;;;;;;9.90;6.47;;;15.80;99.90;;;;;;6301819;22;20845;-91
2022/10/31 09:50:09;;;;;;;10.33;6.13;;;15.90;99.90;;;;;;6301123;22;20390;-93
2022/10/31 09:52:40;;;;;;;16.20;6.37;;;15.90;99.90;;;;;;6301135;22;20378;-91
2022/10/31 09:55:23;;;;;;;6.40;5.80;;;15.60;99.90;;;;;;6296916;22;20964;-92
2022/10/31 09:57:50;;;;;;;7.13;6.37;;;15.50;99.90;;;;;;6298596;22;20429;-92
2022/10/31 10:00:20;;;;;;;12.20;6.33;;;15.50;99.90;;;;;;6300988;22;20505;-92
2022/10/31 10:02:54;;;;;;;8.80;6.60;;;15.60;99.90;;;;;;6299838;22;20378;-90
2022/10/31 10:05:29;;;;;;;7.50;6.53;;;15.30;99.90;;;;;;6301482;22;20369;-91
2022/10/31 10:08:18;;;;;;;8.20;6.87;;;15.30;99.90;;;;;;6304622;22;20416;-91
2022/10/31 10:10:55;;;;;;;7.50;6.33;;;15.20;99.90;;;;;;6300739;22;20377;-91
2022/10/31 10:13:28;;;;;;;7.80;7.07;;;15.70;99.90;;;;;;6299648;22;20451;-92
2022/10/31 10:16:02;;;;;;;8.03;7.20;;;15.90;99.90;;;;;;6298116;22;20408;-90
2022/10/31 10:18:37;;;;;;;11.00;7.43;;;16.20;99.90;;;;;;6299665;22;20404;-91
2022/10/31 10:21:30;;;;;;;10.53;8.00;;;16.20;99.90;;;;;;6300540;22;20379;-91
2022/10/31 10:24:44;;;;;;;11.70;8.43;;;16.50;99.90;;;;;;6294662;22;20369;-92
2022/10/31 10:27:46;;;;;;;10.00;7.30;;;16.60;99.90;;;;;;6296650;22;20378;-91
2022/10/31 10:30:18;;;;;;;9.53;7.40;;;17.00;99.90;;;;;;6301420;22;20453;-90
2022/10/31 10:32:57;;;;;;;12.37;8.07;;;17.00;99.90;;;;;;6299606;22;20376;-91
2022/10/31 10:35:42;;;;;;;11.10;8.63;;;17.10;99.90;;;;;;6297078;22;20377;-91
2022/10/31 10:38:28;;;;;;;12.03;8.40;;;17.20;99.90;;;;;;6320845;22;20338;-92
2022/10/31 10:40:55;;;;;;;8.00;7.20;;;17.50;99.90;;;;;;6294417;22;21081;-91
2022/10/31 10:43:36;;;;;;;12.63;6.63;;;18.00;99.90;;;;;;6289615;22;21039;-92
2022/10/31 10:49:17;;;;;;;10.57;7.77;;;18.50;99.90;;;;;;6295216;22;20438;-91
2022/10/31 10:51:58;;;;;;;11.10;8.23;;;18.30;99.90;;;;;;6295064;22;20382;-91
2022/10/31 10:54:42;;;;;;;10.60;7.97;;;18.10;99.90;;;;;;6295021;22;20384;-91
2022/10/31 10:57:17;;;;;;;9.20;6.90;;;18.50;99.90;;;;;;6297002;22;20376;-92
2022/10/31 10:59:45;;;;;;;10.40;7.67;;;18.60;99.90;;;;;;6297516;22;20429;-91
2022/10/31 11:02:40;;;;;;;9.47;8.20;;;18.70;99.90;;;;;;6295414;22;20461;-91
2022/10/31 11:05:18;;;;;;;10.40;6.83;;;19.00;99.90;;;;;;6289280;22;20382;-91
2022/10/31 11:07:44;;;;;;;13.30;7.30;;;19.10;99.90;;;;;;6292295;22;20461;-91
2022/10/31 11:10:15;;;;;;;9.07;8.03;;;18.90;99.90;;;;;;6294052;22;20404;-92
2022/10/31 11:12:42;;;;;;;13.63;7.80;;;18.70;99.90;;;;;;6293980;22;20446;-90
2022/10/31 11:15:23;;;;;;;12.63;8.07;;;18.80;99.90;;;;;;6297128;22;20373;-91
2022/10/31 11:17:54;;;;;;;9.00;7.47;;;18.90;99.90;;;;;;6299459;22;20389;-92
2022/10/31 11:20:20;;;;;;;8.57;7.40;;;;;;;;;;6294943;22;21286;-91
2022/10/31 11:22:48;;;;;;;10.80;7.63;;;19.50;99.90;;;;;;6287260;22;20467;-91
2022/10/31 11:25:21;;;;;;;8.60;7.13;;;19.60;99.90;;;;;;6294246;22;20771;-89
2022/10/31 11:27:47;;;;;;;10.70;7.90;;;19.70;99.90;;;;;;6286834;22;20357;-88
2022/10/31 11:30:14;;;;;;;13.90;8.43;;;19.20;99.90;;;;;;6287286;22;20405;-88
2022/10/31 11:32:58;;;;;;;17.00;9.00;;;20.00;99.90;;;;;;6287985;22;20843;-87
2022/10/31 11:35:25;;;;;;;11.30;7.90;;;19.90;99.90;;;;;;6289442;22;20385;-88
2022/10/31 11:37:58;;;;;;;11.33;8.30;;;20.00;99.90;;;;;;6288144;22;20831;-87
2022/10/31 11:40:25;;;;;;;9.90;7.97;;;19.90;99.90;;;;;;6286457;22;21217;-87
2022/10/31 11:42:57;;;;;;;11.00;8.03;;;19.80;99.90;;;;;;6284825;22;20366;-90
2022/10/31 11:45:23;;;;;;;10.50;7.90;;;;;;;;;;6289089;22;20380;-89
2022/10/31 11:47:54;;;;;;;11.17;8.63;;;19.60;99.90;;;;;;6292066;22;20801;-87
2022/10/31 11:50:26;;;;;;;9.37;7.90;;;19.20;99.90;;;;;;6294706;22;20394;-88
2022/10/31 11:52:53;;;;;;;12.13;10.10;;;19.10;99.90;;;;;;6289706;22;20365;-88
2022/10/31 11:55:35;;;;;;;17.77;9.33;;;19.00;99.90;;;;;;6291013;22;20389;-87
2022/10/31 11:58:01;;;;;;;25.43;10.13;;;;;;;;;;6298774;22;21143;-86
2022/10/31 12:00:32;;;;;;;14.27;9.73;;;18.80;99.90;;;;;;6289827;22;20447;-89
2022/10/31 12:03:10;;;;;;;15.47;10.07;;;19.00;99.90;;;;;;6288855;22;20797;-88
2022/10/31 12:05:39;;;;;;;15.20;9.50;;;19.10;99.90;;;;;;6297470;22;20378;-86
2022/10/31 12:08:09;;;;;;;14.23;9.20;;;19.00;99.90;;;;;;6324160;22;20420;-86
2022/10/31 12:11:06;;;;;;;16.23;10.10;;;18.90;99.90;;;;;;6307774;22;20384;-88
2022/10/31 12:13:34;;;;;;;18.70;9.27;;;19.30;99.90;;;;;;6296852;22;20423;-87
2022/10/31 12:16:09;;;;;;;14.93;9.63;;;19.50;99.90;;;;;;6297983;22;20384;-87
2022/10/31 12:18:49;;;;;;;15.50;10.43;;;19.40;99.90;;;;;;6295221;22;20968;-86
2022/10/31 12:21:21;;;;;;;19.70;10.90;;;19.50;99.90;;;;;;6293447;22;20727;-88
2022/10/31 12:24:01;;;;;;;12.43;8.50;;;19.50;99.90;;;;;;6299015;22;20354;-87
2022/10/31 12:26:27;;;;;;;13.70;9.17;;;;;;;;;;6297400;22;20373;-86
2022/10/31 12:29:05;;;;;;;20.83;10.37;;;18.90;99.90;;;;;;6295460;22;20427;-86
2022/10/31 12:31:31;;;;;;;20.27;10.70;;;;;;;;;;6293874;22;20547;-87
2022/10/31 12:34:34;;;;;;;15.93;9.17;;;19.10;99.90;;;;;;6292780;22;20488;-88
2022/10/31 12:37:08;;;;;;;22.60;10.17;;;19.20;99.90;;;;;;6295610;22;20381;-89
2022/10/31 12:39:34;;;;;;;13.83;9.33;;;;;;;;;;6296276;22;20421;-88
2022/10/31 12:42:00;;;;;;;17.83;10.37;;;;;;;;;;6285775;22;20720;-87
2022/10/31 12:44:47;;;;;;;14.90;9.97;;;18.70;99.90;;;;;;6288160;22;20358;-90
2022/10/31 12:47:36;;;;;;;18.77;11.70;;;18.60;99.90;;;;;;6295588;22;20850;-88
2022/10/31 12:50:34;;;;;;;16.43;10.80;;;18.70;99.90;;;;;;6297188;22;20648;-87
2022/10/31 12:53:15;;;;;;;16.00;10.30;;;18.90;99.90;;;;;;6294669;22;20384;-88
2022/10/31 12:56:04;;;;;;;15.00;10.10;;;18.80;99.90;;;;;;6295105;22;20380;-88
2022/10/31 12:58:35;;;;;;;22.00;11.10;;;18.30;99.90;;;;;;6287779;22;20393;-87
2022/10/31 13:01:19;;;;;;;17.87;10.73;;;18.20;99.90;;;;;;6297532;22;20440;-89
2022/10/31 13:03:54;;;;;;;18.67;10.57;;;18.00;99.90;;;;;;6299443;22;20342;-87
2022/10/31 13:06:25;;;;;;;16.57;12.37;;;17.90;99.90;;;;;;6297239;22;20388;-87
2022/10/31 13:08:56;;;;;;;14.87;10.27;;;18.10;99.90;;;;;;6299025;22;20463;-89
2022/10/31 13:11:27;;;;;;;18.93;11.57;;;18.40;99.90;;;;;;6289781;22;21110;-88
2022/10/31 13:14:09;;;;;;;17.00;9.90;;;18.40;99.90;;;;;;6301362;22;20365;-87
2022/10/31 13:16:39;;;;;;;13.03;9.90;;;18.40;99.90;;;;;;6296967;22;20378;-88
2022/10/31 13:19:23;;;;;;;15.93;10.83;;;18.30;99.90;;;;;;6302184;22;20421;-88
2022/10/31 13:21:49;;;;;;;17.77;11.60;;;;;;;;;;6305065;22;20358;-87
2022/10/31 13:24:20;;;;;;;22.40;11.77;;;18.20;99.90;;;;;;6309649;22;20692;-89
2022/10/31 13:26:56;;;;;;;18.17;11.90;;;18.00;99.90;;;;;;6305663;22;21025;-88
2022/10/31 13:29:38;;;;;;;15.47;11.00;;;18.10;99.90;;;;;;6298406;22;20416;-89
2022/10/31 13:32:05;;;;;;;17.40;11.07;;;17.80;99.90;;;;;;6301215;22;20373;-89
2022/10/31 13:34:39;;;;;;;21.57;11.43;;;18.00;99.90;;;;;;6300823;22;20458;-89
2022/10/31 13:37:50;;;;;;;17.77;10.00;;;17.90;99.90;;;;;;6331132;22;20426;-87